createdAt,value
2019-02-28T00:04:14.767Z,68.71
2019-02-28T00:06:45.494Z,68.98
2019-02-28T00:09:21.059Z,69.02
2019-02-28T00:11:51.523Z,69.15
2019-02-28T00:14:21.634Z,68.87
2019-02-28T00:16:51.748Z,68.62
2019-02-28T00:19:24.010Z,68.76
2019-02-28T00:21:59.459Z,68.89
2019-02-28T00:24:30.049Z,68.32
2019-02-28T00:27:22.024Z,68.48
2019-02-28T00:32:47.301Z,68.26
2019-02-28T00:35:17.394Z,68.58
2019-02-28T00:37:47.532Z,68.63
2019-02-28T00:40:17.671Z,68.04
2019-02-28T00:42:48.064Z,68.05
2019-02-28T00:45:38.673Z,68.08
2019-02-28T00:48:08.776Z,67.81
2019-02-28T00:50:38.934Z,67.68
2019-02-28T00:53:09.052Z,68.67
2019-02-28T00:55:58.244Z,67.89
2019-02-28T00:58:28.984Z,68.35
2019-02-28T01:01:19.356Z,68.18
2019-02-28T01:03:49.486Z,68.22
2019-02-28T01:06:19.639Z,68.43
2019-02-28T01:08:49.740Z,68.17
2019-02-28T01:11:19.831Z,68.27
2019-02-28T01:13:49.946Z,67.80
2019-02-28T01:16:20.145Z,67.73
2019-02-28T01:18:50.205Z,67.99
2019-02-28T01:21:23.876Z,68.59
2019-02-28T01:24:00.628Z,68.50
2019-02-28T01:29:45.775Z,67.83
2019-02-28T01:32:17.491Z,68.14
2019-02-28T01:34:47.597Z,68.04
2019-02-28T01:37:20.904Z,68.56
2019-02-28T01:39:55.140Z,67.67
2019-02-28T01:42:25.324Z,67.53
2019-02-28T01:44:55.414Z,67.54
2019-02-28T01:47:25.690Z,68.21
2019-02-28T01:49:57.765Z,67.73
2019-02-28T01:52:37.208Z,67.56
2019-02-28T01:55:07.963Z,67.92
2019-02-28T01:57:42.360Z,68.46
2019-02-28T02:00:17.056Z,68.81
2019-02-28T02:02:47.473Z,68.01
2019-02-28T02:05:18.120Z,68.23
2019-02-28T02:07:48.627Z,67.96
2019-02-28T02:10:39.496Z,67.23
2019-02-28T02:13:09.658Z,67.95
2019-02-28T02:15:45.123Z,67.84
2019-02-28T02:18:15.218Z,67.81
2019-02-28T02:20:45.335Z,68.25
2019-02-28T02:23:18.193Z,68.26
2019-02-28T02:25:52.763Z,67.92
2019-02-28T02:28:26.765Z,66.87
2019-02-28T02:31:13.806Z,67.87
2019-02-28T02:36:28.546Z,66.59
2019-02-28T02:38:58.642Z,67.85
2019-02-28T02:41:33.451Z,67.84
2019-02-28T02:44:13.430Z,67.93
2019-02-28T02:47:02.561Z,67.25
2019-02-28T02:49:32.668Z,65.98
2019-02-28T02:52:02.779Z,66.40
2019-02-28T02:54:32.855Z,66.20
2019-02-28T02:57:04.584Z,66.51
2019-02-28T02:59:38.952Z,66.69
2019-02-28T03:02:28.816Z,65.80
2019-02-28T03:05:03.361Z,65.28
2019-02-28T03:07:33.567Z,66.28
2019-02-28T03:10:03.678Z,64.94
2019-02-28T03:12:35.411Z,65.35
2019-02-28T03:15:27.298Z,64.71
2019-02-28T03:18:03.740Z,64.34
2019-02-28T03:20:33.840Z,66.38
2019-02-28T03:23:03.968Z,63.95
2019-02-28T03:25:34.081Z,64.49
2019-02-28T03:28:04.166Z,65.73
2019-02-28T03:30:34.284Z,66.26
2019-02-28T03:33:04.377Z,66.19
2019-02-28T03:35:43.099Z,65.82
2019-02-28T03:41:33.733Z,66.62
2019-02-28T03:44:05.448Z,67.06
2019-02-28T03:46:54.593Z,67.26
2019-02-28T03:49:24.671Z,67.83
2019-02-28T03:51:54.781Z,68.18
2019-02-28T03:57:13.968Z,66.82
2019-02-28T03:59:44.207Z,66.52
2019-02-28T04:02:21.058Z,66.15
2019-02-28T04:05:05.233Z,66.85
2019-02-28T04:07:35.347Z,65.13
2019-02-28T04:10:25.938Z,64.43
2019-02-28T04:12:56.056Z,65.17
2019-02-28T04:15:26.211Z,64.51
2019-02-28T04:17:56.305Z,64.97
2019-02-28T04:20:26.415Z,65.61
2019-02-28T04:23:15.493Z,64.89
2019-02-28T04:25:45.765Z,63.50
2019-02-28T04:28:18.734Z,64.50
2019-02-28T04:31:06.934Z,64.20
2019-02-28T04:33:39.067Z,63.40
2019-02-28T04:36:28.025Z,62.37
2019-02-28T04:38:58.192Z,62.36
2019-02-28T04:41:32.538Z,63.21
2019-02-28T04:44:06.053Z,61.48
2019-02-28T04:46:37.032Z,61.15
2019-02-28T04:49:21.751Z,63.15
2019-02-28T04:51:50.723Z,62.16
2019-02-28T04:54:20.835Z,64.29
2019-02-28T04:56:50.932Z,62.50
2019-02-28T04:59:22.937Z,63.66
2019-02-28T05:07:33.193Z,61.57
2019-02-28T05:10:03.398Z,64.28
2019-02-28T05:12:45.668Z,63.78
2019-02-28T05:15:15.951Z,61.00
2019-02-28T05:17:55.860Z,62.96
2019-02-28T05:20:59.120Z,62.23
2019-02-28T05:23:29.216Z,63.40
2019-02-28T05:25:59.339Z,63.32
2019-02-28T05:28:29.469Z,61.03
2019-02-28T05:30:59.663Z,63.67
2019-02-28T05:33:29.821Z,63.89
2019-02-28T05:36:01.864Z,65.14
2019-02-28T05:38:53.590Z,63.43
2019-02-28T05:41:55.051Z,63.36
2019-02-28T05:44:25.198Z,62.78
2019-02-28T05:46:57.965Z,62.47
2019-02-28T05:49:32.766Z,62.37
2019-02-28T05:52:02.966Z,61.57
2019-02-28T05:54:33.265Z,61.60
2019-02-28T05:57:04.652Z,60.49
2019-02-28T06:02:43.480Z,60.38
2019-02-28T06:05:13.710Z,63.23
2019-02-28T06:08:03.610Z,62.15
2019-02-28T06:10:43.068Z,61.91
2019-02-28T06:13:26.923Z,61.13
2019-02-28T06:16:04.499Z,63.77
2019-02-28T06:18:34.621Z,61.01
2019-02-28T06:21:04.778Z,61.83
2019-02-28T06:24:02.189Z,63.02
2019-02-28T06:26:35.467Z,61.75
2019-02-28T06:32:16.376Z,61.82
2019-02-28T06:34:46.919Z,60.91
2019-02-28T06:37:18.697Z,62.16
2019-02-28T06:39:50.884Z,61.75
2019-02-28T06:42:21.054Z,61.90
2019-02-28T06:44:51.234Z,60.33
2019-02-28T06:47:21.353Z,61.15
2019-02-28T06:49:51.473Z,61.75
2019-02-28T06:52:22.289Z,60.02
2019-02-28T07:00:44.171Z,61.06
2019-02-28T07:03:20.300Z,60.32
2019-02-28T07:05:53.243Z,60.03
2019-02-28T07:11:14.524Z,56.75
2019-02-28T07:14:03.647Z,57.70
2019-02-28T07:16:37.101Z,56.02
2019-02-28T07:19:21.031Z,56.33
2019-02-28T07:21:51.351Z,56.83
2019-02-28T07:24:21.613Z,55.94
2019-02-28T07:26:53.020Z,54.59
2019-02-28T07:29:42.643Z,55.06
2019-02-28T07:32:16.763Z,56.01
2019-02-28T07:34:47.041Z,54.41
2019-02-28T07:37:18.883Z,55.04
2019-02-28T07:40:15.578Z,56.24
2019-02-28T07:42:46.794Z,56.31
2019-02-28T07:45:17.121Z,54.59
2019-02-28T07:47:51.755Z,54.20
2019-02-28T07:50:24.752Z,54.44
2019-02-28T07:52:54.865Z,53.69
2019-02-28T07:55:27.229Z,53.49
2019-02-28T07:58:02.119Z,53.55
2019-02-28T08:00:32.386Z,53.79
2019-02-28T08:03:02.502Z,53.62
2019-02-28T08:05:32.584Z,52.02
2019-02-28T08:08:02.709Z,54.58
2019-02-28T08:10:32.847Z,51.62
2019-02-28T08:13:03.298Z,53.79
2019-02-28T08:15:40.099Z,55.05
2019-02-28T08:18:10.330Z,52.15
2019-02-28T08:20:40.731Z,51.78
2019-02-28T08:23:12.708Z,54.25
2019-02-28T08:25:52.842Z,51.31
2019-02-28T08:28:25.171Z,52.49
2019-02-28T08:30:56.057Z,51.74
2019-02-28T08:33:42.916Z,54.50
2019-02-28T08:36:14.650Z,50.56
2019-02-28T08:38:44.748Z,50.73
2019-02-28T08:41:14.861Z,51.80
2019-02-28T08:43:47.925Z,50.41
2019-02-28T08:46:35.839Z,53.67
2019-02-28T08:52:21.039Z,50.36
2019-02-28T08:54:51.156Z,52.93
2019-02-28T08:57:21.959Z,52.26
2019-02-28T09:00:17.625Z,51.21
2019-02-28T09:02:52.461Z,49.23
2019-02-28T09:05:38.851Z,50.85
2019-02-28T09:08:09.031Z,50.05
2019-02-28T09:10:39.165Z,51.82
2019-02-28T09:13:09.289Z,50.47
2019-02-28T09:15:39.399Z,52.22
2019-02-28T09:18:09.498Z,52.69
2019-02-28T09:20:41.435Z,51.52
2019-02-28T09:23:24.396Z,49.68
2019-02-28T09:26:15.002Z,51.23
2019-02-28T09:28:47.667Z,53.31
2019-02-28T09:31:38.902Z,51.35
2019-02-28T09:34:21.560Z,50.25
2019-02-28T09:36:55.442Z,52.94
2019-02-28T09:39:42.552Z,50.81
2019-02-28T09:42:15.744Z,52.38
2019-02-28T09:47:45.249Z,51.13
2019-02-28T09:50:19.358Z,48.81
2019-02-28T09:53:08.212Z,49.32
2019-02-28T09:55:39.831Z,48.38
2019-02-28T09:58:30.064Z,51.13
2019-02-28T10:01:06.592Z,50.65
2019-02-28T10:03:36.720Z,48.84
2019-02-28T10:06:06.833Z,50.66
2019-02-28T10:08:38.007Z,49.71
2019-02-28T10:11:31.226Z,49.16
2019-02-28T10:14:05.289Z,50.35
2019-02-28T10:16:35.399Z,52.00
2019-02-28T10:19:05.592Z,49.58
2019-02-28T10:21:39.568Z,48.70
2019-02-28T10:24:28.536Z,47.58
2019-02-28T10:27:05.654Z,52.40
2019-02-28T10:29:38.430Z,51.47
2019-02-28T10:32:13.323Z,49.61
2019-02-28T10:34:43.491Z,50.36
2019-02-28T10:37:13.714Z,48.51
2019-02-28T10:39:44.001Z,49.74
2019-02-28T10:42:14.227Z,51.25
2019-02-28T10:44:44.426Z,50.37
2019-02-28T10:47:14.639Z,49.88
2019-02-28T10:49:44.827Z,50.23
2019-02-28T10:52:14.999Z,49.53
2019-02-28T10:54:48.396Z,47.43
2019-02-28T10:57:26.437Z,49.28
2019-02-28T10:59:58.168Z,46.86
2019-02-28T11:03:08.091Z,46.22
2019-02-28T11:05:58.700Z,47.53
2019-02-28T11:08:28.991Z,48.69
2019-02-28T11:14:05.684Z,47.02
2019-02-28T11:16:36.158Z,46.91
2019-02-28T11:19:31.970Z,48.91
2019-02-28T11:22:04.902Z,49.28
2019-02-28T11:27:46.960Z,47.36
2019-02-28T11:30:38.014Z,49.36
2019-02-28T11:36:10.216Z,49.83
2019-02-28T11:38:40.300Z,49.32
2019-02-28T11:41:10.396Z,48.64
2019-02-28T11:43:40.556Z,47.35
2019-02-28T11:46:29.819Z,48.02
2019-02-28T11:49:00.067Z,47.10
2019-02-28T11:51:30.424Z,46.43
2019-02-28T11:54:00.615Z,43.97
2019-02-28T11:56:30.942Z,45.51
2019-02-28T11:59:01.141Z,46.78
2019-02-28T12:01:31.423Z,47.82
2019-02-28T12:04:01.622Z,42.47
2019-02-28T12:06:33.330Z,43.11
2019-02-28T12:12:00.409Z,45.29
2019-02-28T12:14:30.658Z,47.99
2019-02-28T12:17:00.895Z,46.30
2019-02-28T12:19:31.075Z,45.08
2019-02-28T12:22:01.301Z,48.39
2019-02-28T12:24:32.316Z,49.16
2019-02-28T12:27:24.423Z,46.13
2019-02-28T12:30:00.144Z,45.81
2019-02-28T12:32:30.406Z,43.41
2019-02-28T12:35:02.398Z,44.62
2019-02-28T12:37:37.796Z,44.77
2019-02-28T12:40:10.343Z,41.41
2019-02-28T12:42:41.324Z,44.33
2019-02-28T12:45:14.728Z,45.92
2019-02-28T12:47:45.904Z,47.30
2019-02-28T12:50:29.409Z,45.96
2019-02-28T12:53:10.792Z,46.41
2019-02-28T12:55:40.999Z,46.01
2019-02-28T12:58:11.202Z,45.20
2019-02-28T13:00:41.392Z,45.21
2019-02-28T13:06:02.536Z,43.49
2019-02-28T13:08:32.701Z,49.35
2019-02-28T13:11:04.498Z,44.88
2019-02-28T13:13:53.899Z,44.12
2019-02-28T13:16:24.109Z,42.76
2019-02-28T13:19:16.345Z,43.81
2019-02-28T13:28:02.657Z,45.75
2019-02-28T13:30:34.049Z,48.78
2019-02-28T13:38:49.330Z,44.11
2019-02-28T13:50:49.204Z,44.33
2019-02-28T13:53:46.066Z,43.61
2019-02-28T13:56:21.749Z,44.16
2019-02-28T13:58:53.638Z,44.16
2019-02-28T14:02:05.761Z,41.77
2019-02-28T14:07:37.986Z,43.53
2019-02-28T14:10:15.146Z,40.85
2019-02-28T14:12:48.194Z,44.00
2019-02-28T14:15:21.392Z,50.86
2019-02-28T14:17:53.292Z,46.66
2019-02-28T14:20:43.144Z,45.80
2019-02-28T14:26:11.399Z,45.30
2019-02-28T14:28:47.365Z,44.61
2019-02-28T14:31:23.849Z,47.14
2019-02-28T14:34:44.843Z,45.20
2019-02-28T14:40:26.726Z,42.90
2019-02-28T14:42:58.460Z,42.96
2019-02-28T14:45:28.618Z,44.22
2019-02-28T14:48:04.049Z,46.66
2019-02-28T14:50:58.956Z,48.18
2019-02-28T14:53:29.279Z,45.94
2019-02-28T14:56:18.632Z,46.22
2019-02-28T15:01:31.908Z,43.62
2019-02-28T15:04:22.810Z,46.83
2019-02-28T15:07:11.927Z,46.42
2019-02-28T15:09:42.038Z,43.51
2019-02-28T15:12:31.255Z,48.14
2019-02-28T15:15:01.738Z,50.43
2019-02-28T15:17:32.247Z,48.95
2019-02-28T15:20:16.023Z,48.94
2019-02-28T15:25:39.139Z,46.38
2019-02-28T15:28:28.422Z,46.34
2019-02-28T15:30:58.639Z,48.38
2019-02-28T15:33:30.582Z,47.48
2019-02-28T15:36:14.249Z,48.92
2019-02-28T15:38:44.750Z,47.21
2019-02-28T15:41:35.417Z,47.79
2019-02-28T15:44:05.766Z,49.75
2019-02-28T15:46:48.321Z,49.88
2019-02-28T15:49:18.446Z,49.25
2019-02-28T15:51:48.661Z,53.35
2019-02-28T15:54:21.661Z,52.74
2019-02-28T15:56:51.782Z,48.68
2019-02-28T15:59:22.561Z,53.16
2019-02-28T16:01:52.702Z,52.01
2019-02-28T16:04:23.556Z,55.38
2019-02-28T16:07:10.485Z,56.56
2019-02-28T16:09:40.574Z,54.32
2019-02-28T16:14:54.276Z,56.07
2019-02-28T16:17:24.486Z,54.00
2019-02-28T16:23:04.420Z,54.36
2019-02-28T16:28:33.783Z,54.60
2019-02-28T16:31:06.528Z,54.19
2019-02-28T16:33:45.248Z,53.27
2019-02-28T16:36:15.981Z,53.48
2019-02-28T16:38:46.234Z,56.30
2019-02-28T16:41:17.493Z,54.70
2019-02-28T16:43:47.640Z,54.84
2019-02-28T16:46:17.742Z,56.13
2019-02-28T16:48:47.826Z,55.88
2019-02-28T16:51:17.969Z,55.25
2019-02-28T16:53:48.865Z,56.25
2019-02-28T16:56:25.499Z,55.34
2019-02-28T16:58:57.299Z,55.77
2019-02-28T17:01:46.768Z,54.01
2019-02-28T17:04:18.026Z,55.27
2019-02-28T17:07:09.441Z,56.74
2019-02-28T17:12:54.924Z,54.46
2019-02-28T17:15:36.204Z,54.82
2019-02-28T17:18:12.946Z,52.54
2019-02-28T17:20:42.795Z,54.42
2019-02-28T17:23:12.988Z,53.69
2019-02-28T17:25:43.089Z,54.84
2019-02-28T17:28:35.546Z,53.80
2019-02-28T17:31:29.158Z,54.95
2019-02-28T17:33:59.259Z,56.71
2019-02-28T17:36:32.112Z,54.33
2019-02-28T17:39:05.053Z,55.12
2019-02-28T17:41:37.346Z,54.35
2019-02-28T17:44:30.633Z,55.04
2019-02-28T17:47:03.271Z,55.61
2019-02-28T17:50:07.562Z,55.10
2019-02-28T17:52:44.543Z,54.48
2019-02-28T17:55:39.201Z,54.55
2019-02-28T17:58:47.433Z,54.91
2019-02-28T18:01:43.797Z,53.29
2019-02-28T18:04:52.150Z,51.60
2019-02-28T18:07:53.692Z,51.54
2019-02-28T18:11:01.881Z,51.90
2019-02-28T18:14:00.038Z,52.56
2019-02-28T18:17:08.237Z,53.58
2019-02-28T18:19:56.723Z,54.21
2019-02-28T18:23:04.980Z,54.29
2019-02-28T18:25:48.724Z,53.57
2019-02-28T18:29:01.816Z,53.64
2019-02-28T18:31:31.714Z,53.62
2019-02-28T18:34:04.519Z,54.44
2019-02-28T18:36:34.844Z,53.82
2019-02-28T18:39:25.424Z,53.77
2019-02-28T18:42:01.080Z,53.92
2019-02-28T18:44:31.278Z,53.16
2019-02-28T18:47:02.924Z,52.53
2019-02-28T18:49:33.291Z,52.56
2019-02-28T18:52:08.185Z,52.75
2019-02-28T18:54:39.362Z,53.18
2019-02-28T18:57:15.222Z,53.45
2019-02-28T18:59:45.487Z,52.96
2019-02-28T19:02:15.656Z,52.70
2019-02-28T19:07:35.001Z,52.67
2019-02-28T19:10:05.663Z,53.24
2019-02-28T19:12:35.949Z,53.29
2019-02-28T19:15:06.394Z,53.52
2019-02-28T19:17:36.589Z,53.82
2019-02-28T19:20:07.319Z,53.80
2019-02-28T19:22:37.417Z,54.11
2019-02-28T19:25:07.906Z,54.41
2019-02-28T19:27:38.167Z,54.96
2019-02-28T19:30:10.361Z,54.89
2019-02-28T19:32:41.129Z,54.93
2019-02-28T19:35:11.367Z,55.04
2019-02-28T19:37:55.904Z,55.44
2019-02-28T19:43:18.725Z,56.19
2019-02-28T19:45:48.943Z,56.43
2019-02-28T19:48:21.190Z,56.49
2019-02-28T19:50:53.389Z,56.20
2019-02-28T19:53:23.981Z,56.21
2019-02-28T19:55:54.078Z,56.65
2019-02-28T19:58:24.245Z,56.74
2019-02-28T20:00:54.471Z,56.95
2019-02-28T20:03:24.581Z,57.28
2019-02-28T20:05:54.708Z,57.71
2019-02-28T20:08:47.766Z,58.05
2019-02-28T20:11:18.031Z,58.04
2019-02-28T20:13:48.540Z,57.95
2019-02-28T20:16:19.067Z,58.19
2019-02-28T20:18:50.466Z,58.29
2019-02-28T20:21:40.533Z,58.09
2019-02-28T20:24:10.867Z,58.23
2019-02-28T20:29:55.091Z,58.22
2019-02-28T20:32:40.487Z,58.31
2019-02-28T20:35:12.396Z,58.27
2019-02-28T20:37:42.710Z,58.02
2019-02-28T20:40:14.181Z,58.05
2019-02-28T20:42:44.334Z,58.10
2019-02-28T20:45:14.518Z,58.29
2019-02-28T20:47:46.391Z,58.75
2019-02-28T20:50:37.597Z,58.85
2019-02-28T20:53:08.761Z,59.53
2019-02-28T21:01:12.717Z,60.38
2019-02-28T21:06:24.936Z,60.13
2019-02-28T21:08:55.130Z,60.24
2019-02-28T21:11:25.258Z,59.75
2019-02-28T21:13:55.467Z,59.65
2019-02-28T21:16:37.149Z,59.63
2019-02-28T21:19:07.377Z,59.98
2019-02-28T21:21:37.500Z,60.54
2019-02-28T21:24:07.659Z,60.74
2019-02-28T21:26:37.871Z,60.48
2019-02-28T21:29:07.987Z,60.26
2019-02-28T21:31:38.369Z,60.46
2019-02-28T21:43:17.845Z,63.02
2019-02-28T21:45:48.272Z,62.60
2019-02-28T21:48:38.566Z,63.36
2019-02-28T21:51:30.977Z,64.32
2019-02-28T21:54:01.330Z,63.83
2019-02-28T22:02:16.058Z,64.28
2019-02-28T22:04:46.186Z,64.63
2019-02-28T22:07:16.411Z,65.29
2019-02-28T22:09:46.485Z,65.89
2019-02-28T22:12:16.614Z,65.68
2019-02-28T22:14:46.704Z,65.48
2019-02-28T22:17:16.846Z,65.28
2019-02-28T22:19:46.955Z,65.40
2019-02-28T22:22:36.003Z,65.88
2019-02-28T22:25:06.685Z,66.34
2019-02-28T22:27:36.796Z,65.79
2019-02-28T22:30:19.149Z,64.91
2019-02-28T22:32:52.870Z,64.81
2019-02-28T22:35:38.691Z,66.12
2019-02-28T22:38:08.865Z,67.74
2019-02-28T22:40:58.159Z,68.78
2019-02-28T22:43:28.262Z,68.40
2019-02-28T22:45:58.363Z,67.47
2019-02-28T22:48:28.499Z,66.89
2019-02-28T22:50:58.641Z,67.05
2019-02-28T22:53:28.754Z,67.17
2019-02-28T22:55:58.897Z,67.18
2019-02-28T22:58:28.988Z,67.46
2019-02-28T23:01:38.763Z,66.71
2019-02-28T23:04:08.886Z,66.51
2019-02-28T23:06:38.989Z,66.45
2019-02-28T23:09:09.210Z,66.39
2019-02-28T23:11:39.399Z,66.02
2019-02-28T23:14:09.571Z,65.95
2019-02-28T23:16:39.725Z,66.25
2019-02-28T23:21:51.504Z,66.58
2019-02-28T23:24:21.598Z,66.58
2019-02-28T23:27:11.498Z,66.36
2019-02-28T23:29:45.006Z,66.21
2019-02-28T23:32:36.130Z,66.25
2019-02-28T23:35:08.896Z,66.34
2019-02-28T23:43:02.553Z,66.10
2019-02-28T23:45:32.671Z,65.96
2019-02-28T23:48:02.785Z,66.35
2019-02-28T23:50:32.876Z,66.16
2019-02-28T23:53:02.965Z,65.90
2019-02-28T23:55:33.057Z,66.13
2019-02-28T23:58:03.173Z,66.83
